CheckWX is a tool to help pilots better visualize weather data.  It is not intended as a substitute for an official pre-flight weather briefing.

03:11:46 UTC

CZBF METAR
Bathurst Airport
Bathurst, Canada
Current

1 hour ago

CZBF 260200Z AUTO 17003KT 130V190 9SM BKN170 BKN190 13/01 A3000 RMK SLP160
Observed
May-26 @ 02:00 UTC
Wind
  • 170° at 3 KTS
Visibility
9 SM
Flight Rules
VFR
Cloud Levels
  • Broken at 17,000' AGL
  • Broken at 19,000' AGL
Temperature
13°C / 55°F
Dewpoint
C / 34°F
Humidity
44%
Altimeter
30" Hg
Pressure
1015.92 hPa
Previous

2 hours ago

CZBF 260100Z AUTO 18004KT 9SM CLR 14/00 A3002 RMK SLP168
Observed
May-26 @ 01:00 UTC
Wind
  • 180° at 4 KTS
Visibility
9 SM
Flight Rules
VFR
Cloud Levels
  • Clear skies
Temperature
14°C / 57°F
Dewpoint
C / 32°F
Humidity
39%
Altimeter
30.02" Hg
Pressure
1016.62 hPa
Previous

3 hours ago

CZBF 260000Z AUTO 18005KT 9SM CLR 16/M00 A3002 RMK SLP168 DENSITY ALT 200FT
Observed
May-26 @ 00:00 UTC
Wind
  • 180° at 5 KTS
Visibility
9 SM
Flight Rules
VFR
Cloud Levels
  • Clear skies
Temperature
16°C / 61°F
Dewpoint
C / 32°F
Humidity
34%
Altimeter
30.02" Hg
Pressure
1016.62 hPa